sensor_id;sensor_type;location;lat;lon;timestamp;temperature;humidity
30851;DHT22;17567;48.382;9.102;2023-04-25T00:00:13;6.30;99.90
30851;DHT22;17567;48.382;9.102;2023-04-25T00:05:14;6.40;99.90
30851;DHT22;17567;48.382;9.102;2023-04-25T00:10:16;6.60;99.90
30851;DHT22;17567;48.382;9.102;2023-04-25T00:15:17;6.70;99.90
30851;DHT22;17567;48.382;9.102;2023-04-25T00:20:18;6.60;99.90
30851;DHT22;17567;48.382;9.102;2023-04-25T00:25:18;6.70;99.90
30851;DHT22;17567;48.382;9.102;2023-04-25T00:30:19;6.70;99.90
30851;DHT22;17567;48.382;9.102;2023-04-25T00:35:20;6.70;99.90
30851;DHT22;17567;48.382;9.102;2023-04-25T00:40:21;6.80;99.90
30851;DHT22;17567;48.382;9.102;2023-04-25T00:45:27;6.80;99.90
30851;DHT22;17567;48.382;9.102;2023-04-25T00:50:28;7.00;99.90
30851;DHT22;17567;48.382;9.102;2023-04-25T00:55:29;7.10;99.90
30851;DHT22;17567;48.382;9.102;2023-04-25T01:00:31;7.10;99.90
30851;DHT22;17567;48.382;9.102;2023-04-25T01:05:32;7.10;99.90
30851;DHT22;17567;48.382;9.102;2023-04-25T01:10:33;7.00;99.90
30851;DHT22;17567;48.382;9.102;2023-04-25T01:15:33;6.90;99.90
30851;DHT22;17567;48.382;9.102;2023-04-25T01:20:37;7.10;99.90
30851;DHT22;17567;48.382;9.102;2023-04-25T01:25:39;7.10;99.90
30851;DHT22;17567;48.382;9.102;2023-04-25T01:30:40;7.00;99.90
30851;DHT22;17567;48.382;9.102;2023-04-25T01:35:41;7.00;99.90
30851;DHT22;17567;48.382;9.102;2023-04-25T01:40:45;7.00;99.90
30851;DHT22;17567;48.382;9.102;2023-04-25T01:45:46;7.00;99.90
30851;DHT22;17567;48.382;9.102;2023-04-25T01:50:48;7.10;99.90
30851;DHT22;17567;48.382;9.102;2023-04-25T01:55:48;7.00;99.90
30851;DHT22;17567;48.382;9.102;2023-04-25T02:00:49;7.10;99.90
30851;DHT22;17567;48.382;9.102;2023-04-25T02:05:49;7.00;99.90
30851;DHT22;17567;48.382;9.102;2023-04-25T02:10:50;6.90;99.90
30851;DHT22;17567;48.382;9.102;2023-04-25T02:15:51;6.90;99.90
30851;DHT22;17567;48.382;9.102;2023-04-25T02:20:51;7.10;99.90
30851;DHT22;17567;48.382;9.102;2023-04-25T02:25:53;7.10;99.90
30851;DHT22;17567;48.382;9.102;2023-04-25T02:30:55;6.90;99.90
30851;DHT22;17567;48.382;9.102;2023-04-25T02:35:56;6.80;99.90
30851;DHT22;17567;48.382;9.102;2023-04-25T02:40:56;6.70;99.90
30851;DHT22;17567;48.382;9.102;2023-04-25T02:45:57;6.70;99.90
30851;DHT22;17567;48.382;9.102;2023-04-25T02:50:58;6.60;99.90
30851;DHT22;17567;48.382;9.102;2023-04-25T02:55:58;6.60;99.90
30851;DHT22;17567;48.382;9.102;2023-04-25T03:00:59;6.50;99.90
30851;DHT22;17567;48.382;9.102;2023-04-25T03:06:00;6.40;99.90
30851;DHT22;17567;48.382;9.102;2023-04-25T03:11:01;6.40;99.90
30851;DHT22;17567;48.382;9.102;2023-04-25T03:16:02;6.30;99.90
30851;DHT22;17567;48.382;9.102;2023-04-25T03:21:02;6.30;99.90
30851;DHT22;17567;48.382;9.102;2023-04-25T03:31:05;6.10;99.90
30851;DHT22;17567;48.382;9.102;2023-04-25T03:36:06;6.10;99.90
30851;DHT22;17567;48.382;9.102;2023-04-25T03:41:07;6.10;99.90
30851;DHT22;17567;48.382;9.102;2023-04-25T03:46:08;6.10;99.90
30851;DHT22;17567;48.382;9.102;2023-04-25T03:51:09;6.00;99.90
30851;DHT22;17567;48.382;9.102;2023-04-25T03:56:09;6.00;99.90
30851;DHT22;17567;48.382;9.102;2023-04-25T04:01:10;6.00;99.90
30851;DHT22;17567;48.382;9.102;2023-04-25T04:06:11;5.90;99.90
30851;DHT22;17567;48.382;9.102;2023-04-25T04:11:13;5.90;99.90
30851;DHT22;17567;48.382;9.102;2023-04-25T04:16:14;5.80;99.90
30851;DHT22;17567;48.382;9.102;2023-04-25T05:46:43;6.50;99.90
30851;DHT22;17567;48.382;9.102;2023-04-25T05:51:44;6.60;99.90
30851;DHT22;17567;48.382;9.102;2023-04-25T05:56:45;6.50;99.90
30851;DHT22;17567;48.382;9.102;2023-04-25T06:01:45;6.40;99.90
30851;DHT22;17567;48.382;9.102;2023-04-25T06:06:47;6.40;99.90
30851;DHT22;17567;48.382;9.102;2023-04-25T06:11:47;6.30;99.90
30851;DHT22;17567;48.382;9.102;2023-04-25T06:16:48;6.40;99.90
30851;DHT22;17567;48.382;9.102;2023-04-25T06:21:48;6.40;99.90
30851;DHT22;17567;48.382;9.102;2023-04-25T06:26:49;6.50;99.90
30851;DHT22;17567;48.382;9.102;2023-04-25T06:31:50;6.70;99.90
30851;DHT22;17567;48.382;9.102;2023-04-25T06:36:50;6.60;99.90
30851;DHT22;17567;48.382;9.102;2023-04-25T06:41:51;6.60;99.90
30851;DHT22;17567;48.382;9.102;2023-04-25T06:46:52;6.70;99.90
30851;DHT22;17567;48.382;9.102;2023-04-25T06:51:52;6.80;99.90
30851;DHT22;17567;48.382;9.102;2023-04-25T06:56:53;6.90;99.90
30851;DHT22;17567;48.382;9.102;2023-04-25T07:01:54;7.00;99.90
30851;DHT22;17567;48.382;9.102;2023-04-25T07:06:55;7.10;99.90
30851;DHT22;17567;48.382;9.102;2023-04-25T07:11:55;7.20;99.90
30851;DHT22;17567;48.382;9.102;2023-04-25T07:21:58;7.40;99.90
30851;DHT22;17567;48.382;9.102;2023-04-25T07:26:59;7.40;99.90
30851;DHT22;17567;48.382;9.102;2023-04-25T07:31:59;7.40;99.90
30851;DHT22;17567;48.382;9.102;2023-04-25T07:37:00;7.10;99.90
30851;DHT22;17567;48.382;9.102;2023-04-25T07:42:01;6.90;99.90
30851;DHT22;17567;48.382;9.102;2023-04-25T07:47:02;6.90;99.90
30851;DHT22;17567;48.382;9.102;2023-04-25T07:52:04;6.70;99.90
30851;DHT22;17567;48.382;9.102;2023-04-25T07:57:06;6.70;99.90
30851;DHT22;17567;48.382;9.102;2023-04-25T08:02:06;6.70;99.90
30851;DHT22;17567;48.382;9.102;2023-04-25T08:07:07;6.60;99.90
30851;DHT22;17567;48.382;9.102;2023-04-25T08:12:08;6.50;99.90
30851;DHT22;17567;48.382;9.102;2023-04-25T08:17:09;6.60;99.90
30851;DHT22;17567;48.382;9.102;2023-04-25T08:22:10;6.50;99.90
30851;DHT22;17567;48.382;9.102;2023-04-25T08:27:11;6.40;99.90
30851;DHT22;17567;48.382;9.102;2023-04-25T08:32:11;6.30;99.90
30851;DHT22;17567;48.382;9.102;2023-04-25T08:37:12;6.30;99.90
30851;DHT22;17567;48.382;9.102;2023-04-25T08:42:14;6.20;99.90
30851;DHT22;17567;48.382;9.102;2023-04-25T08:47:15;6.20;99.90
30851;DHT22;17567;48.382;9.102;2023-04-25T08:52:22;6.30;99.90
30851;DHT22;17567;48.382;9.102;2023-04-25T08:57:23;6.20;99.90
30851;DHT22;17567;48.382;9.102;2023-04-25T09:07:25;6.00;99.90
30851;DHT22;17567;48.382;9.102;2023-04-25T09:12:26;6.00;99.90
30851;DHT22;17567;48.382;9.102;2023-04-25T09:17:27;5.90;99.90
30851;DHT22;17567;48.382;9.102;2023-04-25T09:22:29;5.90;99.90
30851;DHT22;17567;48.382;9.102;2023-04-25T09:37:32;5.50;99.90
30851;DHT22;17567;48.382;9.102;2023-04-25T09:42:33;5.30;99.90
30851;DHT22;17567;48.382;9.102;2023-04-25T09:47:37;4.90;99.90
30851;DHT22;17567;48.382;9.102;2023-04-25T09:52:38;4.80;99.90
30851;DHT22;17567;48.382;9.102;2023-04-25T09:57:38;4.50;99.90
30851;DHT22;17567;48.382;9.102;2023-04-25T10:02:42;4.50;99.90
30851;DHT22;17567;48.382;9.102;2023-04-25T10:07:47;4.50;99.90
30851;DHT22;17567;48.382;9.102;2023-04-25T10:12:47;4.50;99.90
30851;DHT22;17567;48.382;9.102;2023-04-25T10:17:49;4.60;99.90
30851;DHT22;17567;48.382;9.102;2023-04-25T10:22:51;4.80;99.90
30851;DHT22;17567;48.382;9.102;2023-04-25T10:27:54;4.70;99.90
30851;DHT22;17567;48.382;9.102;2023-04-25T10:32:56;4.40;99.90
30851;DHT22;17567;48.382;9.102;2023-04-25T10:38:14;4.20;99.90
30851;DHT22;17567;48.382;9.102;2023-04-25T10:43:35;4.10;99.90
30851;DHT22;17567;48.382;9.102;2023-04-25T10:48:37;4.10;99.90
30851;DHT22;17567;48.382;9.102;2023-04-25T10:53:37;3.90;99.90
30851;DHT22;17567;48.382;9.102;2023-04-25T10:58:45;3.80;99.90
30851;DHT22;17567;48.382;9.102;2023-04-25T11:03:46;3.90;99.90
30851;DHT22;17567;48.382;9.102;2023-04-25T11:08:51;4.10;99.90
30851;DHT22;17567;48.382;9.102;2023-04-25T11:13:51;4.10;99.90
30851;DHT22;17567;48.382;9.102;2023-04-25T11:18:52;4.10;99.90
30851;DHT22;17567;48.382;9.102;2023-04-25T11:23:54;3.90;99.90
30851;DHT22;17567;48.382;9.102;2023-04-25T11:28:58;4.30;99.90
30851;DHT22;17567;48.382;9.102;2023-04-25T11:34:02;4.20;99.90
30851;DHT22;17567;48.382;9.102;2023-04-25T11:39:03;4.30;99.90
30851;DHT22;17567;48.382;9.102;2023-04-25T11:44:04;4.30;99.90
30851;DHT22;17567;48.382;9.102;2023-04-25T11:49:05;4.40;99.90
30851;DHT22;17567;48.382;9.102;2023-04-25T11:54:06;4.40;99.90
30851;DHT22;17567;48.382;9.102;2023-04-25T11:59:07;4.40;99.90
30851;DHT22;17567;48.382;9.102;2023-04-25T12:04:21;4.80;99.90
30851;DHT22;17567;48.382;9.102;2023-04-25T12:09:32;4.80;99.90
30851;DHT22;17567;48.382;9.102;2023-04-25T12:14:34;5.00;99.90
30851;DHT22;17567;48.382;9.102;2023-04-25T12:19:36;5.10;99.90
30851;DHT22;17567;48.382;9.102;2023-04-25T12:24:37;5.40;99.90
30851;DHT22;17567;48.382;9.102;2023-04-25T12:29:37;5.60;99.90
30851;DHT22;17567;48.382;9.102;2023-04-25T12:34:40;5.60;99.90
30851;DHT22;17567;48.382;9.102;2023-04-25T12:39:41;5.90;99.90
30851;DHT22;17567;48.382;9.102;2023-04-25T12:44:41;6.00;99.90
30851;DHT22;17567;48.382;9.102;2023-04-25T12:49:42;6.10;99.90
30851;DHT22;17567;48.382;9.102;2023-04-25T12:54:43;6.10;99.90
30851;DHT22;17567;48.382;9.102;2023-04-25T12:59:43;6.10;99.90
30851;DHT22;17567;48.382;9.102;2023-04-25T13:04:44;6.30;99.90
30851;DHT22;17567;48.382;9.102;2023-04-25T13:09:45;6.40;99.90
30851;DHT22;17567;48.382;9.102;2023-04-25T13:14:48;6.50;99.90
30851;DHT22;17567;48.382;9.102;2023-04-25T13:19:49;6.70;99.90
30851;DHT22;17567;48.382;9.102;2023-04-25T13:24:50;6.50;99.90
30851;DHT22;17567;48.382;9.102;2023-04-25T13:29:51;6.40;99.90
30851;DHT22;17567;48.382;9.102;2023-04-25T13:34:51;6.50;99.90
30851;DHT22;17567;48.382;9.102;2023-04-25T13:39:53;6.60;99.90
30851;DHT22;17567;48.382;9.102;2023-04-25T13:44:55;6.70;99.90
30851;DHT22;17567;48.382;9.102;2023-04-25T13:49:56;6.90;99.90
30851;DHT22;17567;48.382;9.102;2023-04-25T13:54:57;6.90;99.90
30851;DHT22;17567;48.382;9.102;2023-04-25T13:59:58;6.90;99.90
30851;DHT22;17567;48.382;9.102;2023-04-25T14:04:59;6.80;99.90
30851;DHT22;17567;48.382;9.102;2023-04-25T14:10:00;6.90;99.90
30851;DHT22;17567;48.382;9.102;2023-04-25T14:15:01;7.10;99.90
30851;DHT22;17567;48.382;9.102;2023-04-25T14:20:02;6.90;99.90
30851;DHT22;17567;48.382;9.102;2023-04-25T14:25:06;7.10;99.90
30851;DHT22;17567;48.382;9.102;2023-04-25T14:30:07;7.10;99.90
30851;DHT22;17567;48.382;9.102;2023-04-25T14:35:09;7.20;99.90
30851;DHT22;17567;48.382;9.102;2023-04-25T14:40:11;7.10;99.90
30851;DHT22;17567;48.382;9.102;2023-04-25T14:45:13;7.20;99.90
30851;DHT22;17567;48.382;9.102;2023-04-25T14:50:13;7.20;99.90
30851;DHT22;17567;48.382;9.102;2023-04-25T14:55:14;7.60;99.90
30851;DHT22;17567;48.382;9.102;2023-04-25T15:00:15;8.10;99.90
30851;DHT22;17567;48.382;9.102;2023-04-25T15:05:17;8.50;99.90
30851;DHT22;17567;48.382;9.102;2023-04-25T15:10:19;8.70;99.90
30851;DHT22;17567;48.382;9.102;2023-04-25T15:15:20;9.00;99.90
30851;DHT22;17567;48.382;9.102;2023-04-25T15:20:21;9.20;99.90
30851;DHT22;17567;48.382;9.102;2023-04-25T15:25:22;8.90;99.90
30851;DHT22;17567;48.382;9.102;2023-04-25T15:30:23;8.90;99.90
30851;DHT22;17567;48.382;9.102;2023-04-25T15:35:23;8.60;99.90
30851;DHT22;17567;48.382;9.102;2023-04-25T15:40:24;8.60;99.90
30851;DHT22;17567;48.382;9.102;2023-04-25T15:45:25;8.40;99.90
30851;DHT22;17567;48.382;9.102;2023-04-25T15:50:26;8.30;99.90
30851;DHT22;17567;48.382;9.102;2023-04-25T15:55:26;8.30;99.90
30851;DHT22;17567;48.382;9.102;2023-04-25T16:00:28;8.40;99.90
30851;DHT22;17567;48.382;9.102;2023-04-25T16:05:29;8.40;99.90
30851;DHT22;17567;48.382;9.102;2023-04-25T16:10:29;8.50;99.90
30851;DHT22;17567;48.382;9.102;2023-04-25T16:15:30;8.70;99.90
30851;DHT22;17567;48.382;9.102;2023-04-25T16:20:31;9.40;99.90
30851;DHT22;17567;48.382;9.102;2023-04-25T16:25:32;9.30;99.90
30851;DHT22;17567;48.382;9.102;2023-04-25T16:35:34;10.00;99.90
30851;DHT22;17567;48.382;9.102;2023-04-25T16:40:34;9.80;99.90
30851;DHT22;17567;48.382;9.102;2023-04-25T16:45:35;9.60;99.90
30851;DHT22;17567;48.382;9.102;2023-04-25T16:50:36;9.40;99.90
30851;DHT22;17567;48.382;9.102;2023-04-25T16:55:36;9.60;99.90
30851;DHT22;17567;48.382;9.102;2023-04-25T17:00:37;9.60;99.90
30851;DHT22;17567;48.382;9.102;2023-04-25T17:05:38;9.10;99.90
30851;DHT22;17567;48.382;9.102;2023-04-25T17:10:39;9.20;99.90
30851;DHT22;17567;48.382;9.102;2023-04-25T17:15:39;9.00;99.90
30851;DHT22;17567;48.382;9.102;2023-04-25T17:20:40;9.30;99.90
30851;DHT22;17567;48.382;9.102;2023-04-25T17:25:41;9.10;99.90
30851;DHT22;17567;48.382;9.102;2023-04-25T17:30:43;9.10;99.90
30851;DHT22;17567;48.382;9.102;2023-04-25T17:35:44;8.90;99.90
30851;DHT22;17567;48.382;9.102;2023-04-25T17:40:45;8.60;99.90
30851;DHT22;17567;48.382;9.102;2023-04-25T17:45:46;8.50;99.90
30851;DHT22;17567;48.382;9.102;2023-04-25T17:50:47;8.10;99.90
30851;DHT22;17567;48.382;9.102;2023-04-25T17:55:48;8.10;99.90
30851;DHT22;17567;48.382;9.102;2023-04-25T18:00:49;8.20;99.90
30851;DHT22;17567;48.382;9.102;2023-04-25T18:05:50;8.30;99.90
30851;DHT22;17567;48.382;9.102;2023-04-25T18:10:51;8.10;99.90
30851;DHT22;17567;48.382;9.102;2023-04-25T18:15:52;8.00;99.90
30851;DHT22;17567;48.382;9.102;2023-04-25T18:20:52;7.90;99.90
30851;DHT22;17567;48.382;9.102;2023-04-25T18:25:53;7.80;99.90
30851;DHT22;17567;48.382;9.102;2023-04-25T18:30:54;7.80;99.90
30851;DHT22;17567;48.382;9.102;2023-04-25T18:35:54;7.80;99.90
30851;DHT22;17567;48.382;9.102;2023-04-25T18:50:59;7.50;99.90
30851;DHT22;17567;48.382;9.102;2023-04-25T18:56:00;7.40;99.90
30851;DHT22;17567;48.382;9.102;2023-04-25T19:01:01;7.20;99.90
30851;DHT22;17567;48.382;9.102;2023-04-25T19:06:03;7.20;99.90
30851;DHT22;17567;48.382;9.102;2023-04-25T19:11:04;7.10;99.90
30851;DHT22;17567;48.382;9.102;2023-04-25T19:16:05;7.00;99.90
30851;DHT22;17567;48.382;9.102;2023-04-25T19:21:07;6.80;99.90
30851;DHT22;17567;48.382;9.102;2023-04-25T20:26:27;6.30;99.90
30851;DHT22;17567;48.382;9.102;2023-04-25T20:31:29;5.90;99.90
30851;DHT22;17567;48.382;9.102;2023-04-25T20:36:31;5.70;99.90
30851;DHT22;17567;48.382;9.102;2023-04-25T20:41:31;5.70;99.90
30851;DHT22;17567;48.382;9.102;2023-04-25T20:46:33;5.70;99.90
30851;DHT22;17567;48.382;9.102;2023-04-25T20:51:34;5.70;99.90
30851;DHT22;17567;48.382;9.102;2023-04-25T20:56:36;5.60;99.90
30851;DHT22;17567;48.382;9.102;2023-04-25T21:01:37;5.60;99.90
30851;DHT22;17567;48.382;9.102;2023-04-25T21:06:37;5.60;99.90
30851;DHT22;17567;48.382;9.102;2023-04-25T21:11:38;5.60;99.90
30851;DHT22;17567;48.382;9.102;2023-04-25T21:16:39;5.60;99.90
30851;DHT22;17567;48.382;9.102;2023-04-25T21:21:41;5.50;99.90
30851;DHT22;17567;48.382;9.102;2023-04-25T21:31:43;5.60;99.90
30851;DHT22;17567;48.382;9.102;2023-04-25T21:36:45;5.60;99.90
30851;DHT22;17567;48.382;9.102;2023-04-25T21:41:46;5.50;99.90
30851;DHT22;17567;48.382;9.102;2023-04-25T21:46:47;5.40;99.90
30851;DHT22;17567;48.382;9.102;2023-04-25T21:51:48;5.40;99.90
